Relevés horaires Semmerzake (Belgique)


Relevés horaires à Semmerzake - Samedi 13 Févr. 2021
Heure UTC1 Température [°C] Vent [km/h] Hum. [%] Pres.4 [hPa] Visi. [Km] Nébu. [octa] Préc.5 [mm] Cond.
2m. Res. Ros. Dir.2 Vit. Moy. Raf.3
23:00 -3.3 -5.6 -11.6 SE 5.6 -- 11.1 53 1035.7(-1.0/3h) 20 -- -- --
22:00 -2.6 -5.6 -11.5 ESE 7.4 -- 11.1 50 1036(-0.4/3h) 20 -- -- --
21:00 -3.2 -5.5 -10.2 ESE 5.6 -- 11.1 58 1035.7(0.8/3h) 20 -- -- --
20:00 -2.3 -2.3 -8.9 E 3.7 -- 9.3 60 1036.7(0.9/3h) 20 -- -- --
19:00 -1.6 -1.6 -8.6 E 3.7 -- 11.1 59 1036.2(0.0/3h) 20 -- -- --
18:00 -1.3 -3.3 -8.8 E 5.6 -- 14.8 57 1035.9(-0.2/3h) 20 -- -- --
17:00 -0.8 -0.8 -8.9 E 3.7 -- 11.1 54 1035.5(-0.5/3h) 20 -- -- --
16:00 0.1 -1.7 -10.5 ESE 5.6 -- 14.8 45 1036(-5.5/3h) 19 -- -- --
15:00 0.3 -2.2 -10.4 ESE 7.4 -- 14.8 44 1036(-14.8/3h) 19 -- -- --
14:00 -0.4 -3.6 -10.4 ESE 9.3 -- 14.8 47 1036.2(-15.1/3h) 18 -- -- --
13:00 -1.1 -3.8 -10.7 ESE 7.4 -- 14.8 48 1041.5(-4.9/3h) 20 -- -- --
12:00 -1.8 -4.6 -10.9 ESE 7.4 -- 14.8 50 1051(6.0/3h) 20 -- -- --
11:00 -3.6 -6 -10.6 E 5.6 -- 14.8 58 1051.9(10.5/3h) 19 -- -- --
10:00 -5.0 -7.6 -11.2 E 5.6 -- 13.0 62 1050.2(16.4/3h) 19 -- -- --
09:00 -6.3 -9.9 -11.7 E 7.4 -- 13.0 65 1045.2(15.5/3h) 14 -- -- --
08:00 -7.4 -10.3 -11.9 E 5.6 -- 13.0 70 1041(10.5/3h) 19 -- -- --
07:00 -7.8 -11.6 -12.0 E 7.4 -- 13.0 72 1032(1.3/3h) 19 -- -- --
06:00 -7.6 -10.6 -11.8 E 5.6 -- 16.7 72 1030.5(0.1/3h) 20 -- -- --
05:00 -7.4 -10.3 -11.6 ENE 5.6 -- 14.8 72 1030(0.1/3h) 20 -- -- --
04:00 -7.0 -10.7 -11.3 ENE 7.4 -- 16.7 71 1030.4(0.4/3h) 19 -- -- --
03:00 -6.7 -10.4 -11.0 E 7.4 -- 16.7 71 1030.2(0.0/3h) 20 -- -- --
02:00 -6.2 -9.8 -10.6 E 7.4 -- 16.7 71 1030.7(1.2/3h) 20 -- -- --
01:00 -5.9 -10.1 -10.3 ENE 9.3 -- 14.8 71 1030.5(1.4/3h) 20 -- -- --
00:00 -5.7 -9.9 -10.0 ENE 9.3 -- 16.7 72 1030(2.1/3h) 19 -- -- --

1 Coordinated Universal Time. Actuellement il est 22:00 locale et 20:00 UTC.

2 Le vent souffle depuis la direction indiquée vers la direction oposée.

3 Les rafales max. sont disponible 40 min après l'heure du relevé.

4 Pour les stations d'altitude (plus de 600m) le géopotentiel du niveau le plus proche de la pression obligatoire est indiqué.

5 Les stations disposant d'un diffuseur peuvent indiquer "trace". Cela signifie que des précipitations ont touchés le sol mais que la quantité est inférieure à 0.1 mm.

Récapitulatif de la journée
Température [°C] Vent [km/h] Ensoleillement4 [h] Precipitations totale5 [mm] Pression [Hpa]
Min1 Max.2 Moy.3 Max. Min Max.
-7.8 0.4 0 16.7 0 h 0 min 0 1030.0 1051.9

1 Température minimale relevée entre 18:00 UTC la veille et 18:00 UTC le jour donné.

2 Température maximale relevée entre 06:00 UTC le jour donné et 06:00 UTC le lendemain.

3 Vent moyen de la journée basé sur les relevés horaires.

4 Ensoleillement en heures relevé entre 06:00 UTC la veille et 06:00 UTC le jour donné.

5 Précipitations totales tombées entre 06:00 UTC la jour donné et 06:00 UTC le lendemain.

Graphiques horaires